sensor_id;sensor_type;location;lat;lon;timestamp;P1;P4;P2;P0;N10;N4;N25;N1;N05;TS
62969;SPS30;49065;51.750;5.888;2023-03-14T00:00:35;3.17;3.12;2.89;2.46;19.70;19.68;19.62;19.27;16.19;0.66
62969;SPS30;49065;51.750;5.888;2023-03-14T00:03:00;3.02;2.99;2.85;2.53;20.24;20.23;20.19;19.94;16.89;0.63
62969;SPS30;49065;51.750;5.888;2023-03-14T00:05:26;3.17;3.13;2.95;2.57;20.56;20.55;20.49;20.19;17.04;0.67
62969;SPS30;49065;51.750;5.888;2023-03-14T00:07:51;3.03;3.00;2.84;2.51;20.05;20.04;19.99;19.73;16.69;0.63
62969;SPS30;49065;51.750;5.888;2023-03-14T00:10:17;2.98;2.95;2.80;2.46;19.67;19.66;19.62;19.35;16.36;0.64
62969;SPS30;49065;51.750;5.888;2023-03-14T00:12:42;3.08;3.04;2.85;2.47;19.74;19.73;19.68;19.38;16.34;0.65
62969;SPS30;49065;51.750;5.888;2023-03-14T00:15:08;2.95;2.91;2.70;2.31;18.49;18.48;18.42;18.10;15.23;0.64
62969;SPS30;49065;51.750;5.888;2023-03-14T00:17:34;2.77;2.75;2.61;2.31;18.47;18.46;18.42;18.18;15.39;0.62
62969;SPS30;49065;51.750;5.888;2023-03-14T00:20:01;2.83;2.81;2.70;2.43;19.43;19.42;19.39;19.19;16.28;0.62
62969;SPS30;49065;51.750;5.888;2023-03-14T00:22:36;2.73;2.71;2.62;2.38;19.01;19.00;18.98;18.80;15.97;0.64
62969;SPS30;49065;51.750;5.888;2023-03-14T00:25:02;3.12;3.10;2.99;2.70;21.55;21.54;21.51;21.29;18.08;0.64
62969;SPS30;49065;51.750;5.888;2023-03-14T00:27:28;3.16;3.13;2.97;2.62;20.99;20.98;20.94;20.67;17.48;0.65
62969;SPS30;49065;51.750;5.888;2023-03-14T00:29:53;3.28;3.24;3.03;2.61;20.90;20.89;20.83;20.49;17.26;0.64
62969;SPS30;49065;51.750;5.888;2023-03-14T00:32:19;3.18;3.13;2.91;2.49;19.94;19.93;19.87;19.53;16.43;0.64
62969;SPS30;49065;51.750;5.888;2023-03-14T00:34:44;3.43;3.38;3.10;2.61;20.86;20.85;20.77;20.37;17.07;0.67
62969;SPS30;49065;51.750;5.888;2023-03-14T00:37:10;3.50;3.43;3.11;2.57;20.55;20.54;20.45;20.00;16.70;0.69
62969;SPS30;49065;51.750;5.888;2023-03-14T00:39:37;3.37;3.31;3.06;2.59;20.77;20.76;20.69;20.31;17.05;0.66
62969;SPS30;49065;51.750;5.888;2023-03-14T00:42:03;3.42;3.36;3.08;2.58;20.63;20.62;20.54;20.13;16.86;0.67
62969;SPS30;49065;51.750;5.888;2023-03-14T00:44:28;3.11;3.06;2.84;2.42;19.38;19.37;19.31;18.97;15.94;0.68
62969;SPS30;49065;51.750;5.888;2023-03-14T00:46:54;3.35;3.29;2.99;2.48;19.83;19.82;19.74;19.31;16.14;0.69
62969;SPS30;49065;51.750;5.888;2023-03-14T00:49:19;2.96;2.90;2.59;2.09;16.78;16.77;16.69;16.27;13.53;0.68
62969;SPS30;49065;51.750;5.888;2023-03-14T00:51:45;3.20;3.13;2.78;2.22;17.81;17.80;17.71;17.23;14.30;0.69
62969;SPS30;49065;51.750;5.888;2023-03-14T00:54:10;2.71;2.65;2.36;1.89;15.14;15.12;15.05;14.65;12.16;0.70
62969;SPS30;49065;51.750;5.888;2023-03-14T00:56:36;2.80;2.73;2.38;1.84;14.73;14.71;14.62;14.16;11.66;0.72
62969;SPS30;49065;51.750;5.888;2023-03-14T00:59:01;2.67;2.60;2.23;1.69;13.53;13.51;13.42;12.94;10.60;0.72
62969;SPS30;49065;51.750;5.888;2023-03-14T01:01:26;2.61;2.54;2.19;1.66;13.36;13.34;13.25;12.80;10.50;0.72
62969;SPS30;49065;51.750;5.888;2023-03-14T01:03:52;2.78;2.69;2.24;1.60;12.84;12.82;12.71;12.14;9.81;0.76
62969;SPS30;49065;51.750;5.888;2023-03-14T01:06:20;3.10;2.98;2.40;1.59;12.78;12.76;12.61;11.89;9.42;0.81
62969;SPS30;49065;51.750;5.888;2023-03-14T01:08:46;2.82;2.72;2.18;1.43;11.54;11.52;11.39;10.72;8.48;0.81
62969;SPS30;49065;51.750;5.888;2023-03-14T01:11:14;3.11;2.99;2.36;1.51;12.16;12.14;11.98;11.22;8.80;0.82
62969;SPS30;49065;51.750;5.888;2023-03-14T01:13:40;3.16;3.04;2.42;1.56;12.60;12.57;12.42;11.66;9.18;0.80
62969;SPS30;49065;51.750;5.888;2023-03-14T01:16:07;3.02;2.90;2.33;1.53;12.33;12.31;12.17;11.46;9.06;0.80
62969;SPS30;49065;51.750;5.888;2023-03-14T01:18:36;3.18;3.05;2.42;1.55;12.47;12.44;12.28;11.50;9.03;0.82
62969;SPS30;49065;51.750;5.888;2023-03-14T01:21:03;3.06;2.94;2.34;1.51;12.21;12.19;12.04;11.30;8.90;0.81
62969;SPS30;49065;51.750;5.888;2023-03-14T01:23:29;3.07;2.96;2.37;1.55;12.51;12.49;12.34;11.61;9.18;0.80
62969;SPS30;49065;51.750;5.888;2023-03-14T01:25:54;3.08;2.97;2.39;1.58;12.70;12.68;12.53;11.81;9.36;0.80
62969;SPS30;49065;51.750;5.888;2023-03-14T01:28:20;3.03;2.91;2.32;1.49;12.05;12.03;11.88;11.15;8.77;0.82
62969;SPS30;49065;51.750;5.888;2023-03-14T01:30:45;2.95;2.83;2.22;1.39;11.25;11.23;11.08;10.33;8.06;0.84
62969;SPS30;49065;51.750;5.888;2023-03-14T01:33:12;3.40;3.25;2.50;1.50;12.11;12.08;11.90;10.99;8.45;0.86
62969;SPS30;49065;51.750;5.888;2023-03-14T01:35:41;3.41;3.26;2.50;1.48;11.93;11.90;11.72;10.79;8.26;0.86
62969;SPS30;49065;51.750;5.888;2023-03-14T01:38:07;3.41;3.26;2.51;1.49;12.08;12.05;11.87;10.96;8.41;0.86
62969;SPS30;49065;51.750;5.888;2023-03-14T01:40:32;3.28;3.13;2.39;1.40;11.33;11.30;11.12;10.22;7.79;0.86
62969;SPS30;49065;51.750;5.888;2023-03-14T01:43:04;3.74;3.57;2.71;1.55;12.58;12.54;12.33;11.29;8.55;0.87
62969;SPS30;49065;51.750;5.888;2023-03-14T01:48:15;3.81;3.63;2.74;1.54;12.49;12.45;12.23;11.15;8.39;0.87
62969;SPS30;49065;51.750;5.888;2023-03-14T01:50:41;3.59;3.42;2.59;1.48;11.98;11.95;11.74;10.74;8.12;0.88
62969;SPS30;49065;51.750;5.888;2023-03-14T01:53:06;3.59;3.43;2.60;1.50;12.11;12.08;11.88;10.88;8.25;0.88
62969;SPS30;49065;51.750;5.888;2023-03-14T01:55:33;3.86;3.68;2.77;1.57;12.72;12.68;12.46;11.38;8.57;0.90
62969;SPS30;49065;51.750;5.888;2023-03-14T01:57:59;3.81;3.63;2.75;1.58;12.77;12.73;12.52;11.46;8.67;0.89
62969;SPS30;49065;51.750;5.888;2023-03-14T02:00:29;3.63;3.46;2.63;1.52;12.31;12.28;12.08;11.07;8.41;0.87
62969;SPS30;49065;51.750;5.888;2023-03-14T02:02:55;3.38;3.22;2.44;1.39;11.28;11.25;11.05;10.11;7.64;0.87
62969;SPS30;49065;51.750;5.888;2023-03-14T02:05:28;3.46;3.30;2.51;1.44;11.62;11.59;11.39;10.43;7.89;0.87
62969;SPS30;49065;51.750;5.888;2023-03-14T02:08:01;3.66;3.49;2.64;1.49;12.09;12.06;11.85;10.81;8.15;0.88
62969;SPS30;49065;51.750;5.888;2023-03-14T02:10:35;3.58;3.41;2.54;1.40;11.31;11.28;11.07;10.03;7.47;0.90
62969;SPS30;49065;51.750;5.888;2023-03-14T02:13:04;3.65;3.48;2.62;1.47;11.93;11.90;11.69;10.65;8.01;0.88
62969;SPS30;49065;51.750;5.888;2023-03-14T02:15:53;3.22;3.07;2.32;1.31;10.63;10.60;10.42;9.51;7.17;0.87
62969;SPS30;49065;51.750;5.888;2023-03-14T02:18:40;3.54;3.38;2.56;1.46;11.81;11.78;11.58;10.59;8.00;0.89
62969;SPS30;49065;51.750;5.888;2023-03-14T02:23:58;3.90;3.73;2.91;1.79;14.45;14.42;14.22;13.21;10.24;0.85
62969;SPS30;49065;51.750;5.888;2023-03-14T02:29:20;3.96;3.79;2.91;1.73;14.02;13.98;13.77;12.71;9.74;0.89
62969;SPS30;49065;51.750;5.888;2023-03-14T02:31:46;3.78;3.61;2.77;1.62;13.12;13.09;12.88;11.85;9.04;0.88
62969;SPS30;49065;51.750;5.888;2023-03-14T02:34:12;4.15;3.96;3.06;1.83;14.76;14.73;14.50;13.39;10.29;0.86
62969;SPS30;49065;51.750;5.888;2023-03-14T02:36:38;4.14;3.95;3.04;1.81;14.59;14.56;14.33;13.22;10.13;0.87
62969;SPS30;49065;51.750;5.888;2023-03-14T02:39:06;4.03;3.85;2.92;1.68;13.56;13.53;13.30;12.18;9.22;0.89
62969;SPS30;49065;51.750;5.888;2023-03-14T02:41:40;3.77;3.60;2.73;1.57;12.72;12.69;12.48;11.43;8.66;0.89
62969;SPS30;49065;51.750;5.888;2023-03-14T02:44:07;4.49;4.29;3.28;1.93;15.59;15.55;15.31;14.08;10.75;0.87
62969;SPS30;49065;51.750;5.888;2023-03-14T02:46:33;3.62;3.47;2.72;1.70;13.68;13.65;13.47;12.55;9.77;0.81
62969;SPS30;49065;51.750;5.888;2023-03-14T02:49:03;3.46;3.33;2.64;1.70;13.69;13.66;13.49;12.65;9.94;0.81
62969;SPS30;49065;51.750;5.888;2023-03-14T02:51:31;3.69;3.55;2.83;1.84;14.86;14.83;14.65;13.77;10.86;0.81
62969;SPS30;49065;51.750;5.888;2023-03-14T02:53:58;3.65;3.51;2.83;1.87;15.08;15.05;14.88;14.03;11.12;0.81
62969;SPS30;49065;51.750;5.888;2023-03-14T02:56:24;3.68;3.55;2.89;1.96;15.81;15.79;15.62;14.80;11.81;0.80
62969;SPS30;49065;51.750;5.888;2023-03-14T02:58:50;3.79;3.65;2.98;2.02;16.30;16.27;16.11;15.26;12.19;0.79
62969;SPS30;49065;51.750;5.888;2023-03-14T03:01:31;4.29;4.12;3.26;2.08;16.79;16.75;16.54;15.48;12.14;0.83
62969;SPS30;49065;51.750;5.888;2023-03-14T03:03:57;4.23;4.05;3.14;1.91;15.46;15.43;15.21;14.10;10.90;0.86
62969;SPS30;49065;51.750;5.888;2023-03-14T03:06:23;4.05;3.88;3.04;1.89;15.29;15.25;15.05;14.02;10.91;0.86
62969;SPS30;49065;51.750;5.888;2023-03-14T03:08:48;4.26;4.08;3.18;1.96;15.80;15.76;15.54;14.44;11.19;0.84
62969;SPS30;49065;51.750;5.888;2023-03-14T03:11:14;4.10;3.93;3.10;1.96;15.80;15.76;15.56;14.54;11.37;0.83
62969;SPS30;49065;51.750;5.888;2023-03-14T03:13:39;4.07;3.91;3.10;2.00;16.11;16.08;15.88;14.89;11.71;0.81
62969;SPS30;49065;51.750;5.888;2023-03-14T03:16:06;4.00;3.85;3.08;2.01;16.23;16.20;16.01;15.06;11.90;0.80
62969;SPS30;49065;51.750;5.888;2023-03-14T03:18:33;3.52;3.38;2.69;1.73;13.92;13.89;13.72;12.86;10.11;0.80
62969;SPS30;49065;51.750;5.888;2023-03-14T03:20:59;4.32;4.14;3.25;2.04;16.43;16.39;16.17;15.08;11.76;0.82
62969;SPS30;49065;51.750;5.888;2023-03-14T03:23:25;4.25;4.08;3.22;2.05;16.56;16.53;16.32;15.27;11.96;0.80
62969;SPS30;49065;51.750;5.888;2023-03-14T03:25:51;4.14;3.97;3.16;2.03;16.41;16.38;16.18;15.17;11.93;0.80
62969;SPS30;49065;51.750;5.888;2023-03-14T03:28:17;4.02;3.86;3.07;1.98;15.95;15.92;15.73;14.75;11.60;0.80
62969;SPS30;49065;51.750;5.888;2023-03-14T03:30:43;4.09;3.92;3.10;1.97;15.89;15.86;15.65;14.64;11.47;0.82
62969;SPS30;49065;51.750;5.888;2023-03-14T03:33:10;4.71;4.52;3.54;2.20;17.76;17.73;17.48;16.28;12.67;0.84
62969;SPS30;49065;51.750;5.888;2023-03-14T03:35:41;3.97;3.81;3.02;1.92;15.50;15.47;15.27;14.29;11.20;0.83
62969;SPS30;49065;51.750;5.888;2023-03-14T03:38:07;3.43;3.30;2.66;1.77;14.29;14.27;14.11;13.32;10.57;0.81
62969;SPS30;49065;51.750;5.888;2023-03-14T03:40:32;3.52;3.39;2.74;1.84;14.78;14.75;14.59;13.79;10.97;0.81
62969;SPS30;49065;51.750;5.888;2023-03-14T03:42:58;3.62;3.49;2.87;1.99;15.99;15.96;15.81;15.02;12.05;0.78
62969;SPS30;49065;51.750;5.888;2023-03-14T03:45:24;3.63;3.50;2.86;1.96;15.79;15.76;15.60;14.80;11.85;0.79
62969;SPS30;49065;51.750;5.888;2023-03-14T03:47:53;4.07;3.92;3.16;2.10;16.93;16.90;16.71;15.76;12.51;0.80
62969;SPS30;49065;51.750;5.888;2023-03-14T03:50:19;3.60;3.47;2.82;1.91;15.39;15.36;15.20;14.39;11.48;0.78
62969;SPS30;49065;51.750;5.888;2023-03-14T03:52:44;3.46;3.35;2.78;1.97;15.87;15.85;15.71;15.00;12.11;0.73
62969;SPS30;49065;51.750;5.888;2023-03-14T03:55:10;3.70;3.58;2.98;2.13;17.11;17.08;16.93;16.18;13.08;0.74
62969;SPS30;49065;51.750;5.888;2023-03-14T03:57:35;3.04;2.94;2.45;1.74;13.99;13.97;13.85;13.22;10.68;0.75
62969;SPS30;49065;51.750;5.888;2023-03-14T04:00:01;3.56;3.44;2.81;1.92;15.45;15.42;15.27;14.48;11.58;0.78
62969;SPS30;49065;51.750;5.888;2023-03-14T04:02:26;3.89;3.74;3.00;1.98;15.94;15.91;15.73;14.82;11.73;0.80
62969;SPS30;49065;51.750;5.888;2023-03-14T04:04:52;3.74;3.59;2.87;1.86;15.02;14.99;14.81;13.92;10.97;0.80
62969;SPS30;49065;51.750;5.888;2023-03-14T04:07:18;3.93;3.77;2.96;1.85;14.91;14.87;14.67;13.68;10.66;0.83
62969;SPS30;49065;51.750;5.888;2023-03-14T04:09:43;4.36;4.18;3.26;2.00;16.14;16.10;15.87;14.74;11.42;0.84
62969;SPS30;49065;51.750;5.888;2023-03-14T04:12:25;4.37;4.19;3.27;2.02;16.30;16.26;16.04;14.91;11.58;0.84
62969;SPS30;49065;51.750;5.888;2023-03-14T04:14:54;4.07;3.90;3.05;1.88;15.20;15.16;14.95;13.91;10.80;0.84
62969;SPS30;49065;51.750;5.888;2023-03-14T04:17:21;3.84;3.68;2.89;1.82;14.67;14.64;14.45;13.48;10.53;0.82
62969;SPS30;49065;51.750;5.888;2023-03-14T04:19:46;4.25;4.08;3.22;2.03;16.39;16.36;16.15;15.08;11.79;0.81
62969;SPS30;49065;51.750;5.888;2023-03-14T04:22:14;3.82;3.66;2.88;1.81;14.62;14.59;14.40;13.44;10.49;0.82
62969;SPS30;49065;51.750;5.888;2023-03-14T04:24:47;4.11;3.94;3.09;1.93;15.54;15.51;15.30;14.26;11.11;0.81
62969;SPS30;49065;51.750;5.888;2023-03-14T04:27:12;3.79;3.64;2.87;1.82;14.71;14.68;14.49;13.55;10.61;0.81
62969;SPS30;49065;51.750;5.888;2023-03-14T04:29:40;3.79;3.64;2.90;1.87;15.07;15.04;14.85;13.93;10.96;0.81
62969;SPS30;49065;51.750;5.888;2023-03-14T04:32:06;3.64;3.50;2.78;1.78;14.38;14.35;14.17;13.28;10.44;0.81
62969;SPS30;49065;51.750;5.888;2023-03-14T04:34:31;3.88;3.73;2.98;1.94;15.63;15.60;15.42;14.49;11.43;0.82
62969;SPS30;49065;51.750;5.888;2023-03-14T04:36:57;3.69;3.55;2.85;1.88;15.12;15.09;14.91;14.05;11.12;0.83
62969;SPS30;49065;51.750;5.888;2023-03-14T04:39:29;3.68;3.54;2.83;1.85;14.91;14.88;14.70;13.83;10.92;0.83
62969;SPS30;49065;51.750;5.888;2023-03-14T04:42:04;3.37;3.24;2.58;1.68;13.56;13.54;13.38;12.57;9.92;0.84
62969;SPS30;49065;51.750;5.888;2023-03-14T04:44:30;3.55;3.41;2.70;1.73;13.98;13.95;13.77;12.91;10.14;0.83
62969;SPS30;49065;51.750;5.888;2023-03-14T04:46:56;3.23;3.10;2.46;1.57;12.68;12.65;12.49;11.70;9.18;0.85
62969;SPS30;49065;51.750;5.888;2023-03-14T04:49:21;3.67;3.52;2.75;1.72;13.85;13.82;13.63;12.69;9.88;0.86
62969;SPS30;49065;51.750;5.888;2023-03-14T04:51:47;3.48;3.34;2.63;1.65;13.32;13.29;13.11;12.23;9.55;0.85
62969;SPS30;49065;51.750;5.888;2023-03-14T04:54:12;3.84;3.68;2.89;1.80;14.55;14.52;14.32;13.35;10.39;0.86
62969;SPS30;49065;51.750;5.888;2023-03-14T04:56:38;3.54;3.41;2.72;1.76;14.22;14.20;14.03;13.17;10.39;0.84
62969;SPS30;49065;51.750;5.888;2023-03-14T04:59:04;2.96;2.85;2.30;1.54;12.37;12.35;12.21;11.53;9.16;0.82
62969;SPS30;49065;51.750;5.888;2023-03-14T05:01:31;3.23;3.11;2.49;1.62;13.09;13.07;12.91;12.14;9.59;0.83
62969;SPS30;49065;51.750;5.888;2023-03-14T05:04:20;2.83;2.72;2.16;1.40;11.26;11.23;11.10;10.41;8.19;0.84
62969;SPS30;49065;51.750;5.888;2023-03-14T05:06:59;3.08;2.96;2.37;1.56;12.54;12.52;12.37;11.64;9.21;0.82
62969;SPS30;49065;51.750;5.888;2023-03-14T05:09:44;3.04;2.92;2.32;1.50;12.10;12.07;11.93;11.19;8.81;0.82
62969;SPS30;49065;51.750;5.888;2023-03-14T05:12:39;2.78;2.68;2.17;1.45;11.69;11.66;11.54;10.90;8.67;0.80
62969;SPS30;49065;51.750;5.888;2023-03-14T05:15:24;2.93;2.82;2.26;1.49;12.00;11.98;11.84;11.15;8.83;0.80
62969;SPS30;49065;51.750;5.888;2023-03-14T05:18:10;2.71;2.60;2.09;1.37;11.08;11.06;10.93;10.29;8.14;0.80
62969;SPS30;49065;51.750;5.888;2023-03-14T05:20:50;2.75;2.65;2.14;1.42;11.42;11.40;11.27;10.63;8.43;0.79
62969;SPS30;49065;51.750;5.888;2023-03-14T05:23:40;2.83;2.73;2.21;1.49;11.98;11.96;11.83;11.18;8.90;0.77
62969;SPS30;49065;51.750;5.888;2023-03-14T05:26:14;2.51;2.42;2.00;1.40;11.27;11.25;11.14;10.61;8.54;0.75
62969;SPS30;49065;51.750;5.888;2023-03-14T05:28:55;2.84;2.76;2.35;1.75;14.02;14.00;13.90;13.37;10.91;0.71
62969;SPS30;49065;51.750;5.888;2023-03-14T05:31:29;2.67;2.60;2.28;1.78;14.31;14.30;14.22;13.79;11.39;0.67
62969;SPS30;49065;51.750;5.888;2023-03-14T05:34:08;2.59;2.54;2.29;1.88;15.03;15.02;14.96;14.61;12.18;0.66
62969;SPS30;49065;51.750;5.888;2023-03-14T05:37:00;2.82;2.80;2.66;2.36;18.88;18.87;18.83;18.60;15.74;0.62
62969;SPS30;49065;51.750;5.888;2023-03-14T05:40:04;2.42;2.42;2.40;2.25;17.95;17.94;17.93;17.84;15.24;0.58
62969;SPS30;49065;51.750;5.888;2023-03-14T05:42:50;2.45;2.45;2.45;2.32;18.51;18.51;18.50;18.43;15.77;0.57
62969;SPS30;49065;51.750;5.888;2023-03-14T05:45:29;2.84;2.84;2.84;2.69;21.44;21.44;21.43;21.34;18.27;0.54
62969;SPS30;49065;51.750;5.888;2023-03-14T05:48:21;3.02;3.02;3.02;2.85;22.78;22.78;22.77;22.67;19.41;0.52
62969;SPS30;49065;51.750;5.888;2023-03-14T05:51:19;3.46;3.46;3.46;3.27;26.13;26.13;26.12;26.01;22.26;0.53
62969;SPS30;49065;51.750;5.888;2023-03-14T05:54:20;3.28;3.28;3.28;3.10;24.75;24.74;24.73;24.63;21.08;0.55
62969;SPS30;49065;51.750;5.888;2023-03-14T05:57:04;3.71;3.70;3.68;3.46;27.65;27.65;27.63;27.50;23.51;0.58
62969;SPS30;49065;51.750;5.888;2023-03-14T05:59:29;3.68;3.68;3.67;3.46;27.66;27.66;27.65;27.52;23.55;0.57
62969;SPS30;49065;51.750;5.888;2023-03-14T06:02:12;3.76;3.75;3.75;3.55;28.33;28.33;28.32;28.20;24.13;0.56
62969;SPS30;49065;51.750;5.888;2023-03-14T06:04:48;3.86;3.86;3.85;3.63;28.97;28.97;28.95;28.82;24.65;0.57
62969;SPS30;49065;51.750;5.888;2023-03-14T06:07:14;3.80;3.79;3.79;3.57;28.55;28.54;28.53;28.40;24.30;0.57
62969;SPS30;49065;51.750;5.888;2023-03-14T06:09:40;3.63;3.63;3.63;3.42;27.35;27.34;27.33;27.21;23.29;0.57
62969;SPS30;49065;51.750;5.888;2023-03-14T06:12:06;3.60;3.60;3.60;3.41;27.22;27.22;27.21;27.09;23.19;0.55
62969;SPS30;49065;51.750;5.888;2023-03-14T06:14:37;3.56;3.56;3.56;3.37;26.90;26.90;26.89;26.78;22.92;0.56
62969;SPS30;49065;51.750;5.888;2023-03-14T06:17:03;3.66;3.66;3.66;3.45;27.55;27.55;27.54;27.42;23.46;0.56
62969;SPS30;49065;51.750;5.888;2023-03-14T06:19:36;3.76;3.76;3.76;3.56;28.39;28.38;28.37;28.25;24.18;0.57
62969;SPS30;49065;51.750;5.888;2023-03-14T06:22:01;3.85;3.85;3.85;3.64;29.10;29.10;29.09;28.97;24.79;0.57
62969;SPS30;49065;51.750;5.888;2023-03-14T06:24:27;4.04;4.04;4.04;3.82;30.49;30.49;30.47;30.35;25.97;0.55
62969;SPS30;49065;51.750;5.888;2023-03-14T06:26:53;4.02;4.02;4.02;3.80;30.35;30.35;30.34;30.21;25.86;0.54
62969;SPS30;49065;51.750;5.888;2023-03-14T06:29:18;4.06;4.06;4.06;3.84;30.69;30.68;30.67;30.54;26.14;0.55
62969;SPS30;49065;51.750;5.888;2023-03-14T06:31:44;3.94;3.94;3.94;3.72;29.73;29.72;29.71;29.59;25.33;0.53
62969;SPS30;49065;51.750;5.888;2023-03-14T06:34:11;3.98;3.98;3.98;3.76;30.06;30.05;30.04;29.91;25.60;0.53
62969;SPS30;49065;51.750;5.888;2023-03-14T06:36:38;3.83;3.83;3.83;3.63;28.95;28.94;28.93;28.81;24.66;0.55
62969;SPS30;49065;51.750;5.888;2023-03-14T06:39:03;3.77;3.77;3.77;3.56;28.46;28.45;28.44;28.32;24.24;0.54
62969;SPS30;49065;51.750;5.888;2023-03-14T06:41:31;3.54;3.54;3.54;3.35;26.75;26.74;26.73;26.62;22.79;0.54
62969;SPS30;49065;51.750;5.888;2023-03-14T06:43:58;3.88;3.88;3.88;3.67;29.28;29.27;29.26;29.14;24.94;0.56
62969;SPS30;49065;51.750;5.888;2023-03-14T06:46:25;3.57;3.57;3.57;3.37;26.95;26.94;26.93;26.82;22.96;0.55
62969;SPS30;49065;51.750;5.888;2023-03-14T06:48:52;3.50;3.50;3.50;3.31;26.45;26.44;26.43;26.32;22.53;0.56
62969;SPS30;49065;51.750;5.888;2023-03-14T06:51:17;3.57;3.57;3.57;3.38;27.00;26.99;26.98;26.87;23.00;0.54
62969;SPS30;49065;51.750;5.888;2023-03-14T06:53:43;3.22;3.22;3.22;3.05;24.32;24.32;24.31;24.21;20.72;0.55
62969;SPS30;49065;51.750;5.888;2023-03-14T06:56:08;3.21;3.21;3.21;3.03;24.22;24.22;24.21;24.11;20.63;0.54
62969;SPS30;49065;51.750;5.888;2023-03-14T06:58:34;3.13;3.13;3.13;2.96;23.64;23.63;23.62;23.52;20.13;0.54
62969;SPS30;49065;51.750;5.888;2023-03-14T07:01:02;3.01;3.01;3.01;2.85;22.75;22.75;22.74;22.64;19.38;0.52
62969;SPS30;49065;51.750;5.888;2023-03-14T07:03:33;3.11;3.11;3.11;2.94;23.48;23.47;23.46;23.36;20.00;0.51
62969;SPS30;49065;51.750;5.888;2023-03-14T07:05:59;2.97;2.97;2.97;2.80;22.39;22.39;22.38;22.28;19.07;0.52
62969;SPS30;49065;51.750;5.888;2023-03-14T07:08:25;2.89;2.89;2.89;2.73;21.83;21.83;21.82;21.73;18.60;0.52
62969;SPS30;49065;51.750;5.888;2023-03-14T07:10:50;3.17;3.17;3.17;3.00;23.95;23.95;23.94;23.84;20.41;0.55
62969;SPS30;49065;51.750;5.888;2023-03-14T07:13:17;3.08;3.08;3.08;2.91;23.25;23.25;23.24;23.14;19.81;0.54
62969;SPS30;49065;51.750;5.888;2023-03-14T07:15:52;2.98;2.98;2.98;2.82;22.54;22.53;22.52;22.43;19.20;0.54
62969;SPS30;49065;51.750;5.888;2023-03-14T07:18:19;3.31;3.31;3.31;3.13;25.00;25.00;24.99;24.88;21.30;0.55
62969;SPS30;49065;51.750;5.888;2023-03-14T07:20:45;3.44;3.44;3.44;3.25;25.96;25.95;25.94;25.83;22.11;0.53
62969;SPS30;49065;51.750;5.888;2023-03-14T07:23:11;3.53;3.53;3.53;3.34;26.64;26.64;26.63;26.52;22.70;0.54
62969;SPS30;49065;51.750;5.888;2023-03-14T07:25:45;3.39;3.39;3.39;3.20;25.59;25.58;25.58;25.47;21.80;0.55
62969;SPS30;49065;51.750;5.888;2023-03-14T07:28:12;3.25;3.25;3.25;3.08;24.57;24.56;24.55;24.45;20.93;0.55
62969;SPS30;49065;51.750;5.888;2023-03-14T07:30:39;3.52;3.52;3.52;3.33;26.62;26.61;26.60;26.49;22.67;0.53
62969;SPS30;49065;51.750;5.888;2023-03-14T07:33:11;3.47;3.47;3.47;3.28;26.17;26.16;26.15;26.04;22.29;0.52
62969;SPS30;49065;51.750;5.888;2023-03-14T07:35:37;3.42;3.42;3.42;3.23;25.79;25.78;25.77;25.67;21.97;0.56
62969;SPS30;49065;51.750;5.888;2023-03-14T07:38:02;3.46;3.46;3.46;3.27;26.09;26.08;26.07;25.96;22.22;0.58
62969;SPS30;49065;51.750;5.888;2023-03-14T07:40:34;3.33;3.33;3.32;3.14;25.08;25.08;25.07;24.96;21.36;0.57
62969;SPS30;49065;51.750;5.888;2023-03-14T07:43:02;3.39;3.39;3.39;3.21;25.60;25.59;25.58;25.48;21.80;0.56
62969;SPS30;49065;51.750;5.888;2023-03-14T07:45:37;1.49;1.49;1.49;1.41;11.27;11.27;11.26;11.22;9.60;0.55
62969;SPS30;49065;51.750;5.888;2023-03-14T07:48:02;1.62;1.62;1.62;1.53;12.20;12.20;12.20;12.15;10.40;0.56
62969;SPS30;49065;51.750;5.888;2023-03-14T07:50:28;1.47;1.47;1.47;1.39;11.13;11.13;11.13;11.08;9.49;0.56
62969;SPS30;49065;51.750;5.888;2023-03-14T07:52:54;1.07;1.07;1.07;1.01;8.06;8.06;8.06;8.02;6.87;0.55
62969;SPS30;49065;51.750;5.888;2023-03-14T07:55:20;0.90;0.90;0.90;0.85;6.82;6.82;6.82;6.79;5.81;0.56
62969;SPS30;49065;51.750;5.888;2023-03-14T07:57:45;0.63;0.63;0.63;0.59;4.73;4.73;4.73;4.71;4.03;0.57
62969;SPS30;49065;51.750;5.888;2023-03-14T08:00:11;0.62;0.62;0.62;0.59;4.69;4.69;4.68;4.66;3.99;0.58
62969;SPS30;49065;51.750;5.888;2023-03-14T08:02:40;0.61;0.61;0.60;0.56;4.44;4.43;4.43;4.40;3.75;0.59
62969;SPS30;49065;51.750;5.888;2023-03-14T08:05:05;0.69;0.69;0.67;0.62;4.94;4.94;4.93;4.89;4.17;0.60
62969;SPS30;49065;51.750;5.888;2023-03-14T08:07:31;0.99;0.99;0.97;0.88;7.07;7.06;7.06;7.00;5.96;0.60
62969;SPS30;49065;51.750;5.888;2023-03-14T08:09:56;0.91;0.90;0.88;0.80;6.38;6.38;6.37;6.32;5.37;0.60
62969;SPS30;49065;51.750;5.888;2023-03-14T08:12:22;0.99;0.99;0.96;0.87;6.98;6.98;6.97;6.90;5.87;0.60
62969;SPS30;49065;51.750;5.888;2023-03-14T08:14:47;1.14;1.13;1.10;1.00;8.03;8.03;8.01;7.94;6.76;0.60
62969;SPS30;49065;51.750;5.888;2023-03-14T08:17:12;1.30;1.29;1.25;1.13;9.02;9.02;9.00;8.92;7.58;0.62
62969;SPS30;49065;51.750;5.888;2023-03-14T08:19:38;1.39;1.38;1.32;1.19;9.51;9.51;9.49;9.39;7.97;0.61
62969;SPS30;49065;51.750;5.888;2023-03-14T08:22:04;1.17;1.17;1.13;1.03;8.25;8.25;8.24;8.16;6.95;0.60
62969;SPS30;49065;51.750;5.888;2023-03-14T08:24:29;1.01;1.01;0.98;0.90;7.16;7.16;7.15;7.09;6.03;0.60
62969;SPS30;49065;51.750;5.888;2023-03-14T08:26:55;1.15;1.14;1.12;1.03;8.24;8.23;8.23;8.17;6.96;0.59
62969;SPS30;49065;51.750;5.888;2023-03-14T08:29:20;1.27;1.27;1.27;1.20;9.55;9.55;9.55;9.51;8.14;0.57
62969;SPS30;49065;51.750;5.888;2023-03-14T08:31:46;1.48;1.48;1.48;1.40;11.20;11.20;11.19;11.15;9.54;0.57
62969;SPS30;49065;51.750;5.888;2023-03-14T08:34:11;1.67;1.67;1.67;1.58;12.62;12.62;12.62;12.56;10.75;0.55
62969;SPS30;49065;51.750;5.888;2023-03-14T08:36:37;2.19;2.19;2.19;2.07;16.54;16.54;16.53;16.46;14.09;0.54
62969;SPS30;49065;51.750;5.888;2023-03-14T08:39:02;2.29;2.29;2.29;2.17;17.32;17.32;17.31;17.24;14.75;0.54
62969;SPS30;49065;51.750;5.888;2023-03-14T08:41:29;2.27;2.27;2.27;2.15;17.14;17.13;17.13;17.06;14.60;0.55
62969;SPS30;49065;51.750;5.888;2023-03-14T08:43:54;2.47;2.47;2.47;2.33;18.63;18.62;18.61;18.54;15.87;0.55
62969;SPS30;49065;51.750;5.888;2023-03-14T08:46:20;2.88;2.88;2.88;2.72;21.73;21.72;21.72;21.63;18.51;0.54
62969;SPS30;49065;51.750;5.888;2023-03-14T08:48:46;2.72;2.72;2.72;2.57;20.51;20.51;20.50;20.41;17.47;0.52
62969;SPS30;49065;51.750;5.888;2023-03-14T08:51:12;2.59;2.59;2.59;2.45;19.56;19.56;19.55;19.47;16.66;0.51
62969;SPS30;49065;51.750;5.888;2023-03-14T08:53:39;2.60;2.60;2.60;2.46;19.61;19.60;19.60;19.51;16.70;0.51
62969;SPS30;49065;51.750;5.888;2023-03-14T08:56:05;2.37;2.37;2.37;2.24;17.87;17.86;17.86;17.78;15.22;0.49
62969;SPS30;49065;51.750;5.888;2023-03-14T08:58:31;2.12;2.12;2.12;2.01;16.04;16.03;16.03;15.96;13.66;0.49
62969;SPS30;49065;51.750;5.888;2023-03-14T09:00:57;1.68;1.68;1.68;1.59;12.67;12.67;12.66;12.61;10.79;0.49
62969;SPS30;49065;51.750;5.888;2023-03-14T09:03:23;1.66;1.66;1.66;1.57;12.54;12.54;12.53;12.48;10.68;0.49
62969;SPS30;49065;51.750;5.888;2023-03-14T09:05:49;1.20;1.20;1.20;1.14;9.09;9.09;9.09;9.05;7.75;0.51
62969;SPS30;49065;51.750;5.888;2023-03-14T09:08:14;1.30;1.30;1.30;1.23;9.80;9.80;9.79;9.75;8.35;0.51
62969;SPS30;49065;51.750;5.888;2023-03-14T09:10:40;1.04;1.04;1.04;0.99;7.89;7.89;7.89;7.85;6.72;0.52
62969;SPS30;49065;51.750;5.888;2023-03-14T09:13:05;1.16;1.16;1.16;1.10;8.75;8.75;8.74;8.71;7.45;0.52
62969;SPS30;49065;51.750;5.888;2023-03-14T09:15:31;0.90;0.90;0.90;0.85;6.76;6.76;6.76;6.73;5.76;0.54
62969;SPS30;49065;51.750;5.888;2023-03-14T09:17:56;0.98;0.98;0.98;0.93;7.40;7.40;7.40;7.37;6.31;0.56
62969;SPS30;49065;51.750;5.888;2023-03-14T09:20:22;0.89;0.89;0.89;0.84;6.71;6.70;6.70;6.67;5.71;0.57
62969;SPS30;49065;51.750;5.888;2023-03-14T09:22:47;1.61;1.61;1.60;1.50;11.96;11.96;11.95;11.89;10.17;0.58
62969;SPS30;49065;51.750;5.888;2023-03-14T09:25:13;1.10;1.09;1.07;0.98;7.85;7.85;7.84;7.78;6.63;0.60
62969;SPS30;49065;51.750;5.888;2023-03-14T09:27:38;1.63;1.61;1.54;1.37;10.99;10.99;10.97;10.84;9.19;0.62
62969;SPS30;49065;51.750;5.888;2023-03-14T09:30:04;1.76;1.74;1.63;1.41;11.28;11.28;11.25;11.07;9.34;0.66